x

Keaton Beach, Fl (ktnf1) Weather Station

5:00pm - Tue 27th Sep 2016 All times are EDT. -4 hours from GMT.

  • Wind
    9mph, 10mph gusts
  • Air Temp 83°f
  • Sea Pressure 1011.9mb
  • Keaton Beach, Fl
  • Keaton Beach, Fl

More Historic Weather Station data

Upgrade to MSW Pro to gain access to the past 30 days of data for over 8000 Wavebouys and Weather Stations around the globe.

Join Pro

Comparision Forecast

View Surf forecast
   
Tue 09/27 5:00pm 9 10 mph 1011.9mb 83f
4:00pm 8 9 mph 1012.2mb 83f
3:00pm 10 11 mph 1012.8mb 82f
2:00pm 8
mph
1013.4mb 81f
1:00pm 6 8 mph 1013.8mb 81f
12:00pm 7
mph
1014.4mb 81f
11:00am 2 5 mph 1014.5mb 81f
10:00am 6 7 mph 1014.4mb 77f
9:00am 7 8 mph 1014.1mb 73f
8:00am 6 7 mph 1013.6mb 71f
7:00am 6 8 mph 1013.1mb 71f
6:00am 3 6 mph 1012.9mb 71f
5:00am 5 7 mph 1013mb 72f
4:00am 5 7 mph 1013.1mb 72f
3:00am 3 5 mph 1013.4mb 73f
2:00am 3 5 mph 1013.9mb 73f
1:00am 5 6 mph 1014.1mb 74f
12:00am 3 6 mph 1014.6mb 75f
Mon 09/26 11:00pm 6 7 mph 1015.1mb 76f
10:00pm 7 8 mph 1015.8mb 78f
9:00pm 3 5 mph 1014.5mb 78f
8:00pm 3 5 mph 1014mb 79f
7:00pm  -  1 mph 1013.4mb 81f
6:00pm 6 8 mph 1013.3mb 83f
5:00pm 7 8 mph 1012.8mb 85f
4:00pm 10 11 mph 1013.3mb 85f
3:00pm 10 11 mph 1013.9mb 85f
2:00pm 3 5 mph 1014.9mb 86f
1:00pm  -  2 mph 1015.9mb 86f
12:00pm 5 8 mph 1016.3mb 83f
11:00am 8 10 mph 1016.5mb 82f
10:00am 9 11 mph 1016.6mb 79f
9:00am 7 9 mph 1016.5mb 74f
8:00am 5 6 mph 1016.1mb 72f
7:00am 5 6 mph 1015.6mb 72f
6:00am 6 8 mph 1015.1mb 72f
5:00am 3 5 mph 1015mb 73f
4:00am 6 8 mph 1014.8mb 74f
3:00am 3 6 mph 1015mb 74f
2:00am 6 7 mph 1015.8mb 75f
1:00am 6 7 mph 1016.9mb 76f
12:00am 9 10 mph 1017.2mb 77f
Sun 09/25 11:00pm 7 8 mph 1016.9mb 75f
10:00pm 6 7 mph 1016.5mb 76f
9:00pm 5 6 mph 1015.8mb 77f
8:00pm 3 5 mph 1014.9mb 80f
7:00pm 2 3 mph 1014.4mb 82f
6:00pm 6 7 mph 1015.3mb 83f
5:00pm  -  2 mph 1014.5mb 83f
4:00pm 6 7 mph 1014.9mb 79f
3:00pm 3 5 mph 1015.3mb 86f
2:00pm 3
mph
1016.2mb 86f
1:00pm 7 8 mph 1016.9mb 84f
12:00pm 2 5 mph 1017.1mb 86f
11:00am 5 6 mph 1017.1mb 84f
10:00am 2
mph
1016.9mb 82f
9:00am 6 7 mph 1017.2mb 77f
8:00am 5
mph
1017mb 75f
7:00am 3
mph
1016.5mb 75f
6:00am 3 5 mph 1016mb 75f
5:00am 2 3 mph 1015.8mb 75f
4:00am 2
mph
1015.5mb 76f
3:00am 3 5 mph 1015.5mb 76f
2:00am 8 9 mph 1015.8mb 77f
1:00am 3 5 mph 1016mb 77f
12:00am 10 16 mph 1015.9mb 78f
Sat 09/24 11:00pm 2 3 mph 1016.1mb 79f
10:00pm 3
mph
1016mb 79f
9:00pm 3
mph
1015.8mb 81f
8:00pm 7 8 mph 1015.5mb 84f
7:00pm 6 7 mph 1015.3mb 85f
6:00pm 11 14 mph 1015.2mb 86f
5:00pm 9 11 mph 1015.2mb 86f
4:00pm 9 11 mph 1015.4mb 85f
3:00pm 7
mph
1016mb 85f
2:00pm 5 6 mph 1016.7mb 85f
1:00pm 5 6 mph 1017.7mb 84f
12:00pm 8 10 mph 1018.1mb 83f
11:00am 3 5 mph 1018.2mb 83f
10:00am 1 2 mph 1017.9mb 82f
9:00am 5 6 mph 1017.8mb 80f
8:00am 6 7 mph 1017.2mb 75f
7:00am 3 6 mph 1016.6mb 75f
6:00am 5
mph
1016.2mb 75f
5:00am 5 6 mph 1015.6mb 76f
4:00am 6
mph
1015.5mb 76f
3:00am 3 5 mph 1015.8mb 77f
2:00am 2 3 mph 1015.9mb 78f
1:00am 2
mph
1016.1mb 78f
12:00am 2
mph
1016.2mb 82f
Fri 09/23 11:00pm 7 8 mph 1016.2mb 85f